Time;durP1;ratioP1;P1;durP2;ratioP2;P2;SDS_P1;SDS_P2;PMS_P1;PMS_P2;Temp;Humidity;BMP_temperature;BMP_pressure;BME280_temperature;BME280_humidity;BME280_pressure;Samples;Min_cycle;Max_cycle;Signal;HPM_P1;HPM_P2
2023/08/28 00:01:45;;;;;;;2.75;1.52;;;15.80;99.90;;;;;;5056921;28;20219;-72
2023/08/28 00:04:11;;;;;;;6.00;1.60;;;15.80;99.90;;;;;;5057518;28;20025;-71
2023/08/28 00:06:36;;;;;;;4.05;1.48;;;15.80;99.90;;;;;;5064585;28;20451;-71
2023/08/28 00:09:02;;;;;;;2.80;1.70;;;15.80;99.90;;;;;;5067119;28;20031;-71
2023/08/28 00:11:28;;;;;;;2.53;1.33;;;15.80;99.90;;;;;;5068537;28;20036;-72
2023/08/28 00:13:53;;;;;;;3.72;1.00;;;15.70;99.90;;;;;;5072045;28;20025;-71
2023/08/28 00:16:19;;;;;;;3.45;1.55;;;15.70;99.90;;;;;;5055293;28;20030;-71
2023/08/28 00:18:44;;;;;;;1.25;1.02;;;15.70;99.90;;;;;;5054650;28;20053;-71
2023/08/28 00:21:10;;;;;;;1.88;1.20;;;15.70;99.90;;;;;;5059645;28;20111;-71
2023/08/28 00:23:35;;;;;;;1.88;1.33;;;15.70;99.90;;;;;;5065189;28;20111;-71
2023/08/28 00:26:02;;;;;;;2.10;1.30;;;15.70;99.90;;;;;;5059413;28;20104;-72
2023/08/28 00:28:27;;;;;;;2.50;1.33;;;15.70;99.90;;;;;;5064656;28;20025;-71
2023/08/28 00:30:53;;;;;;;2.38;1.33;;;15.70;99.90;;;;;;5066854;28;20108;-71
2023/08/28 00:33:18;;;;;;;4.18;1.63;;;15.60;99.90;;;;;;5066831;28;20394;-71
2023/08/28 00:35:44;;;;;;;4.50;1.70;;;15.60;99.90;;;;;;5053971;28;20077;-71
2023/08/28 00:38:10;;;;;;;2.22;1.27;;;15.60;99.90;;;;;;5058642;28;20065;-71
2023/08/28 00:40:40;;;;;;;2.20;1.30;;;15.60;99.90;;;;;;5056989;28;20060;-71
2023/08/28 00:43:06;;;;;;;3.00;1.15;;;15.60;99.90;;;;;;5049083;28;20075;-71
2023/08/28 00:45:31;;;;;;;2.10;1.52;;;15.60;99.90;;;;;;5064914;28;20036;-71
2023/08/28 00:47:57;;;;;;;2.10;1.00;;;15.60;99.90;;;;;;5064056;28;20460;-71
2023/08/28 00:50:23;;;;;;;7.43;1.45;;;15.60;99.90;;;;;;5056072;28;20226;-71
2023/08/28 00:52:49;;;;;;;1.58;0.98;;;15.60;99.90;;;;;;5055915;28;20021;-71
2023/08/28 00:55:15;;;;;;;2.22;0.70;;;15.60;99.90;;;;;;5069396;28;20031;-71
2023/08/28 00:57:40;;;;;;;1.65;0.80;;;15.60;99.90;;;;;;5053973;28;20518;-71
2023/08/28 01:00:10;;;;;;;1.85;1.38;;;15.50;99.90;;;;;;5057728;28;20062;-71
2023/08/28 01:02:37;;;;;;;6.13;1.30;;;15.50;99.90;;;;;;5062811;28;20028;-71
2023/08/28 01:05:04;;;;;;;3.03;1.00;;;15.50;99.90;;;;;;5055742;28;20391;-71
2023/08/28 01:07:47;;;;;;;2.05;1.00;;;15.60;99.90;;;;;;5054057;28;20388;-71
2023/08/28 01:10:21;;;;;;;2.17;1.20;;;15.60;99.90;;;;;;5056317;28;20032;-71
2023/08/28 01:12:59;;;;;;;3.25;0.90;;;15.50;99.90;;;;;;5052472;28;20027;-71
2023/08/28 01:15:25;;;;;;;2.88;0.82;;;15.50;99.90;;;;;;5065279;28;20047;-71
2023/08/28 01:18:00;;;;;;;0.95;0.70;;;15.50;99.90;;;;;;5063648;28;20039;-71
2023/08/28 01:20:29;;;;;;;2.38;1.13;;;15.60;99.90;;;;;;5054267;28;20048;-71
2023/08/28 01:23:04;;;;;;;4.60;0.85;;;15.50;99.90;;;;;;5056895;28;20033;-71
2023/08/28 01:25:31;;;;;;;6.07;1.10;;;15.40;99.90;;;;;;5055504;28;20033;-71
2023/08/28 01:27:58;;;;;;;2.67;1.15;;;15.40;99.90;;;;;;5063421;28;20425;-71
2023/08/28 01:30:24;;;;;;;6.85;1.48;;;15.40;99.90;;;;;;5058354;28;20040;-71
2023/08/28 01:32:50;;;;;;;4.38;1.40;;;15.50;99.90;;;;;;5063631;28;20040;-71
2023/08/28 01:35:24;;;;;;;1.10;0.90;;;15.50;99.90;;;;;;5065616;28;20044;-71
2023/08/28 01:38:19;;;;;;;2.15;1.10;;;15.50;99.90;;;;;;5050521;28;20021;-71
2023/08/28 01:41:03;;;;;;;3.28;1.20;;;15.40;99.90;;;;;;5053272;28;20104;-71
2023/08/28 01:43:34;;;;;;;1.77;1.23;;;15.40;99.90;;;;;;5059175;28;20021;-71
2023/08/28 01:45:59;;;;;;;3.10;2.28;;;15.40;99.90;;;;;;5064117;28;20031;-71
2023/08/28 01:48:27;;;;;;;6.28;4.32;;;15.40;99.90;;;;;;5062810;28;20028;-72
2023/08/28 01:50:53;;;;;;;3.88;2.97;;;15.30;99.90;;;;;;5058614;28;20052;-71
2023/08/28 01:53:18;;;;;;;5.75;3.83;;;15.30;99.90;;;;;;5058783;28;21276;-71
2023/08/28 01:56:14;;;;;;;4.57;3.67;;;15.30;99.90;;;;;;5056616;28;20040;-71
2023/08/28 01:58:57;;;;;;;4.32;2.00;;;15.30;99.90;;;;;;5061723;28;20021;-71
2023/08/28 02:01:24;;;;;;;5.03;2.15;;;15.30;99.90;;;;;;5064575;28;20024;-71
2023/08/28 02:03:50;;;;;;;5.95;2.13;;;15.20;99.90;;;;;;5060518;28;20024;-71
2023/08/28 02:06:16;;;;;;;3.88;2.30;;;15.20;99.90;;;;;;5057700;28;20036;-71
2023/08/28 02:08:41;;;;;;;4.93;1.80;;;15.20;99.90;;;;;;5064627;28;20040;-71
2023/08/28 02:11:07;;;;;;;2.38;1.58;;;15.20;99.90;;;;;;5058223;28;20445;-71
2023/08/28 02:13:32;;;;;;;6.80;2.55;;;15.20;99.90;;;;;;5067811;28;20028;-71
2023/08/28 02:16:00;;;;;;;2.78;1.55;;;15.10;99.90;;;;;;5062782;28;20403;-71
2023/08/28 02:18:25;;;;;;;1.63;1.33;;;15.10;99.90;;;;;;5062524;28;20031;-71
2023/08/28 02:20:51;;;;;;;1.73;0.88;;;15.10;99.90;;;;;;5056337;28;20021;-71
2023/08/28 02:23:17;;;;;;;2.75;1.88;;;15.00;99.90;;;;;;5063961;28;20020;-71
2023/08/28 02:25:43;;;;;;;6.18;1.83;;;15.00;99.90;;;;;;5057162;28;20035;-71
2023/08/28 02:28:09;;;;;;;2.22;1.73;;;15.00;99.90;;;;;;5049270;28;20025;-71
2023/08/28 02:30:34;;;;;;;6.30;1.70;;;15.00;99.90;;;;;;5056379;28;20032;-71
2023/08/28 02:33:00;;;;;;;3.42;1.70;;;15.00;99.90;;;;;;5062305;28;20025;-71
2023/08/28 02:35:26;;;;;;;5.93;2.08;;;15.00;99.90;;;;;;5054953;28;20025;-71
2023/08/28 02:37:51;;;;;;;2.50;1.48;;;14.90;99.90;;;;;;5062327;28;20029;-71
2023/08/28 02:40:17;;;;;;;2.55;1.58;;;14.90;99.90;;;;;;5064692;28;20020;-71
2023/08/28 02:42:42;;;;;;;6.20;2.25;;;15.00;99.90;;;;;;5056771;28;20138;-71
2023/08/28 02:45:08;;;;;;;2.03;1.73;;;15.00;99.90;;;;;;5041117;28;20475;-71
2023/08/28 02:47:34;;;;;;;3.35;2.08;;;14.90;99.90;;;;;;5068871;28;20514;-71
2023/08/28 02:49:59;;;;;;;1.65;1.40;;;14.90;99.90;;;;;;5055949;28;20056;-71
2023/08/28 02:52:25;;;;;;;1.30;1.20;;;14.90;99.90;;;;;;5066691;28;20021;-71
2023/08/28 02:54:50;;;;;;;1.75;1.65;;;14.90;99.90;;;;;;5052103;28;20036;-71
2023/08/28 02:57:16;;;;;;;2.28;1.70;;;14.90;99.90;;;;;;5050050;28;20071;-71
2023/08/28 02:59:41;;;;;;;2.85;1.98;;;14.90;99.90;;;;;;5049467;28;20539;-71
2023/08/28 03:02:07;;;;;;;3.28;2.40;;;14.90;99.90;;;;;;5052414;28;20021;-71
2023/08/28 03:04:34;;;;;;;4.22;2.10;;;14.80;99.90;;;;;;5050830;28;20021;-71
2023/08/28 03:07:00;;;;;;;9.00;2.90;;;14.50;99.90;;;;;;5050407;28;20029;-71
2023/08/28 03:09:25;;;;;;;2.20;1.73;;;14.30;99.90;;;;;;5057658;28;20380;-71
2023/08/28 03:11:51;;;;;;;2.63;1.77;;;14.20;99.90;;;;;;5062771;28;20519;-71
2023/08/28 03:14:17;;;;;;;3.85;2.13;;;14.20;99.90;;;;;;5053444;28;20395;-71
2023/08/28 03:16:42;;;;;;;2.30;1.77;;;14.30;99.90;;;;;;5056035;28;20036;-71
2023/08/28 03:19:08;;;;;;;4.25;1.92;;;14.40;99.90;;;;;;5062276;28;20021;-71
2023/08/28 03:21:34;;;;;;;3.92;1.80;;;14.60;99.90;;;;;;5062994;28;20048;-71
2023/08/28 03:24:00;;;;;;;2.58;2.28;;;14.70;99.90;;;;;;5065899;28;20032;-71
2023/08/28 03:26:26;;;;;;;1.48;1.38;;;14.80;99.90;;;;;;5072087;28;20033;-71
2023/08/28 03:28:51;;;;;;;4.45;2.35;;;14.80;99.90;;;;;;5064514;28;20024;-71
2023/08/28 03:31:17;;;;;;;2.38;2.15;;;14.70;99.90;;;;;;5066186;28;20032;-70
2023/08/28 03:33:42;;;;;;;3.97;1.98;;;14.80;99.90;;;;;;5055530;28;20480;-71
2023/08/28 03:36:08;;;;;;;4.32;2.80;;;14.70;99.90;;;;;;5057822;28;20497;-71
2023/08/28 03:38:34;;;;;;;7.82;2.85;;;14.60;99.90;;;;;;5057135;28;20025;-70
2023/08/28 03:40:59;;;;;;;4.53;2.63;;;14.60;99.90;;;;;;5058253;28;20039;-69
2023/08/28 03:43:25;;;;;;;7.38;3.70;;;14.60;99.90;;;;;;5051766;28;20023;-69
2023/08/28 03:45:50;;;;;;;3.20;2.78;;;14.50;99.90;;;;;;5053457;28;20025;-71
2023/08/28 03:48:16;;;;;;;4.15;2.58;;;14.30;99.90;;;;;;5053096;28;20036;-71
2023/08/28 03:50:41;;;;;;;9.48;4.50;;;14.10;99.90;;;;;;5056290;28;20029;-71
2023/08/28 03:53:07;;;;;;;4.63;2.40;;;14.20;99.90;;;;;;5061137;28;20016;-71
2023/08/28 03:55:32;;;;;;;4.30;3.30;;;14.10;99.90;;;;;;5063078;28;20146;-71
2023/08/28 03:58:02;;;;;;;7.30;3.83;;;14.10;99.90;;;;;;5055432;28;20062;-70
2023/08/28 04:00:27;;;;;;;4.47;4.07;;;14.00;99.90;;;;;;5060865;28;20497;-70
2023/08/28 04:02:53;;;;;;;3.58;2.35;;;13.80;99.90;;;;;;5053675;28;20017;-70
2023/08/28 04:05:19;;;;;;;6.88;3.50;;;13.60;99.90;;;;;;5057353;28;20051;-71
2023/08/28 04:07:45;;;;;;;4.75;3.35;;;13.70;99.90;;;;;;5053439;28;20017;-71
2023/08/28 04:10:11;;;;;;;2.75;2.00;;;13.80;99.90;;;;;;5051348;28;20066;-71
2023/08/28 04:12:37;;;;;;;6.70;2.95;;;14.00;99.90;;;;;;5060805;28;20071;-70
2023/08/28 04:15:03;;;;;;;5.75;3.97;;;14.10;99.90;;;;;;5063369;28;20178;-70
2023/08/28 04:17:29;;;;;;;4.30;2.35;;;14.10;99.90;;;;;;5048574;28;20051;-70
2023/08/28 04:19:55;;;;;;;6.82;3.63;;;14.10;99.90;;;;;;5051133;28;20460;-70
2023/08/28 04:22:21;;;;;;;2.50;2.03;;;14.10;99.90;;;;;;5058150;28;20496;-70
2023/08/28 04:24:49;;;;;;;7.38;4.28;;;14.10;99.90;;;;;;5061588;28;20112;-71
2023/08/28 04:27:15;;;;;;;6.72;5.75;;;14.10;99.90;;;;;;5054896;28;20513;-70
2023/08/28 04:29:41;;;;;;;8.45;5.63;;;14.10;99.90;;;;;;5054190;28;20106;-72
2023/08/28 04:32:06;;;;;;;;;;;14.00;99.90;;;;;;5066706;28;20031;-72
2023/08/28 04:34:32;;;;;;;11.00;6.28;;;13.70;99.90;;;;;;5066757;28;19908;-72
2023/08/28 04:36:57;;;;;;;8.32;5.10;;;13.40;99.90;;;;;;5051785;28;20037;-73
2023/08/28 04:39:23;;;;;;;6.43;4.35;;;13.10;99.90;;;;;;5055186;28;20028;-73
2023/08/28 04:41:52;;;;;;;11.70;5.43;;;12.90;99.90;;;;;;5064974;28;20039;-73
2023/08/28 04:44:18;;;;;;;4.97;4.47;;;12.80;99.90;;;;;;5048408;28;20161;-73
2023/08/28 04:46:45;;;;;;;7.57;5.85;;;12.70;99.90;;;;;;5057622;28;20025;-73
2023/08/28 04:49:11;;;;;;;12.00;5.38;;;12.60;99.90;;;;;;5047821;28;20039;-73
2023/08/28 04:51:36;;;;;;;8.48;5.32;;;12.60;99.90;;;;;;5052393;28;20138;-73
2023/08/28 04:54:02;;;;;;;;;;;12.60;99.90;;;;;;5050905;28;20029;-73
2023/08/28 04:56:28;;;;;;;9.13;5.30;;;12.60;99.90;;;;;;5049332;28;20429;-73
2023/08/28 04:58:53;;;;;;;;;;;12.60;99.90;;;;;;5050831;28;20057;-74
2023/08/28 05:01:19;;;;;;;8.07;5.40;;;12.70;99.90;;;;;;5057347;28;19913;-74
2023/08/28 05:03:44;;;;;;;10.20;6.32;;;12.80;99.90;;;;;;5047799;28;20494;-73
2023/08/28 05:06:10;;;;;;;;;;;12.80;99.90;;;;;;5054743;28;20291;-73
2023/08/28 05:08:35;;;;;;;9.60;6.88;;;12.90;99.90;;;;;;5057835;28;20351;-73
2023/08/28 05:11:03;;;;;;;6.60;5.70;;;13.00;99.90;;;;;;5064047;28;20029;-73
2023/08/28 05:13:28;;;;;;;7.15;5.65;;;13.10;99.90;;;;;;5060072;28;20468;-73
2023/08/28 05:15:54;;;;;;;7.80;5.60;;;13.10;99.90;;;;;;5047894;28;20032;-72
2023/08/28 05:18:19;;;;;;;;;;;13.20;99.90;;;;;;5053506;28;20037;-75
2023/08/28 05:20:45;;;;;;;8.23;5.20;;;13.30;99.90;;;;;;5054526;28;19914;-73
2023/08/28 05:23:11;;;;;;;;;;;13.50;99.90;;;;;;5061323;28;20028;-72
2023/08/28 05:25:36;;;;;;;8.43;7.50;;;13.50;99.90;;;;;;5058638;28;19949;-72
2023/08/28 05:28:02;;;;;;;9.30;7.13;;;13.60;99.90;;;;;;5061709;28;20036;-73
2023/08/28 05:30:27;;;;;;;;;;;13.70;99.90;;;;;;5052433;28;20082;-73
2023/08/28 05:32:53;;;;;;;10.07;7.00;;;13.70;99.90;;;;;;5059352;28;20381;-72
2023/08/28 05:35:18;;;;;;;9.48;6.70;;;13.70;99.90;;;;;;5059741;28;20520;-73
2023/08/28 05:37:44;;;;;;;;;;;13.70;99.90;;;;;;5052004;28;20104;-73
2023/08/28 05:40:13;;;;;;;8.57;6.43;;;13.80;99.90;;;;;;5050428;28;19923;-73
2023/08/28 05:42:39;;;;;;;9.23;7.10;;;13.80;99.90;;;;;;5066916;28;20028;-73
2023/08/28 05:45:05;;;;;;;9.80;7.10;;;13.80;99.90;;;;;;5071705;28;20020;-72
2023/08/28 05:47:32;;;;;;;9.90;7.47;;;13.90;99.90;;;;;;5056075;28;20095;-73
2023/08/28 05:49:58;;;;;;;10.65;7.30;;;13.90;99.90;;;;;;5060866;28;20025;-73
2023/08/28 05:52:23;;;;;;;10.88;6.68;;;13.90;99.90;;;;;;5054536;28;20589;-72
2023/08/28 05:54:49;;;;;;;9.38;7.07;;;14.00;99.90;;;;;;5063218;28;20025;-73
2023/08/28 05:57:14;;;;;;;9.20;7.32;;;14.00;99.90;;;;;;5059591;28;20499;-72
2023/08/28 05:59:40;;;;;;;8.80;6.55;;;14.00;99.90;;;;;;5051306;28;20028;-73
2023/08/28 06:02:05;;;;;;;11.65;6.13;;;14.10;99.90;;;;;;5047165;28;20021;-72
2023/08/28 06:04:31;;;;;;;22.98;8.88;;;14.10;99.90;;;;;;5048068;28;20395;-75
2023/08/28 06:06:57;;;;;;;12.23;8.65;;;14.20;99.90;;;;;;5050340;28;20025;-71
2023/08/28 06:09:22;;;;;;;11.57;8.23;;;14.20;99.90;;;;;;5051811;28;20032;-71
2023/08/28 06:11:48;;;;;;;10.45;6.50;;;14.20;99.90;;;;;;5058768;28;20487;-71
2023/08/28 06:14:13;;;;;;;9.23;6.85;;;14.30;99.90;;;;;;5057126;28;20029;-71
2023/08/28 06:16:39;;;;;;;;;;;14.30;99.90;;;;;;5053341;28;20025;-71
2023/08/28 06:19:04;;;;;;;8.75;6.53;;;14.30;99.90;;;;;;5053182;28;19909;-72
2023/08/28 06:21:31;;;;;;;;;;;14.30;99.90;;;;;;5053652;28;20459;-72
2023/08/28 06:23:56;;;;;;;8.15;6.20;;;14.40;99.90;;;;;;5060483;28;19919;-72
2023/08/28 06:26:22;;;;;;;12.10;5.38;;;14.50;99.90;;;;;;5050249;28;20029;-72
2023/08/28 06:28:48;;;;;;;7.47;5.47;;;14.50;99.90;;;;;;5058617;28;20044;-72
2023/08/28 06:31:13;;;;;;;;;;;14.50;99.90;;;;;;5052409;28;20020;-73
2023/08/28 06:33:38;;;;;;;6.90;4.97;;;14.60;99.90;;;;;;5058834;28;19912;-73
2023/08/28 06:36:04;;;;;;;7.15;5.25;;;14.60;99.90;;;;;;5049549;28;20373;-73
2023/08/28 06:38:30;;;;;;;9.00;6.10;;;14.70;99.90;;;;;;5058619;28;20488;-73
2023/08/28 06:40:55;;;;;;;;;;;14.70;99.90;;;;;;5056935;28;20025;-73
2023/08/28 06:43:21;;;;;;;7.70;5.95;;;14.70;99.90;;;;;;5049381;28;19908;-73
2023/08/28 06:45:46;;;;;;;6.75;6.05;;;14.80;99.90;;;;;;5059381;28;20021;-73
2023/08/28 06:48:12;;;;;;;10.55;5.32;;;14.80;99.90;;;;;;5061113;28;20042;-72
2023/08/28 06:50:38;;;;;;;8.93;4.13;;;14.80;99.90;;;;;;5059734;28;20395;-73
2023/08/28 06:53:04;;;;;;;7.28;5.63;;;14.90;99.90;;;;;;5064326;28;20025;-74
2023/08/28 06:55:30;;;;;;;5.88;4.40;;;15.10;99.90;;;;;;5061076;28;20546;-74
2023/08/28 06:57:55;;;;;;;6.15;4.60;;;15.20;99.90;;;;;;5063618;28;20032;-74
2023/08/28 07:00:21;;;;;;;7.82;6.93;;;15.30;99.90;;;;;;5053711;28;20052;-74
2023/08/28 07:02:47;;;;;;;6.95;5.22;;;15.40;99.90;;;;;;5068251;28;20021;-73
2023/08/28 07:05:12;;;;;;;;;;;15.40;99.90;;;;;;5066252;28;20096;-73
2023/08/28 07:07:38;;;;;;;6.95;5.35;;;15.50;99.90;;;;;;5058936;28;19915;-73
2023/08/28 07:10:04;;;;;;;;;;;15.50;99.90;;;;;;5056869;28;20055;-73
2023/08/28 07:12:30;;;;;;;12.85;4.15;;;15.60;99.90;;;;;;5059717;28;19916;-74
2023/08/28 07:15:11;;;;;;;8.15;5.47;;;15.60;99.90;;;;;;5060427;28;20021;-73
2023/08/28 07:17:37;;;;;;;4.85;4.35;;;15.70;99.90;;;;;;5062224;28;20475;-73
2023/08/28 07:20:04;;;;;;;9.45;4.85;;;15.80;99.90;;;;;;5062175;28;20471;-73
2023/08/28 07:22:30;;;;;;;7.20;4.90;;;15.80;99.90;;;;;;5057464;28;20025;-73
2023/08/28 07:24:56;;;;;;;4.55;4.10;;;15.80;99.90;;;;;;5069281;28;20100;-74
2023/08/28 07:27:21;;;;;;;5.38;4.57;;;15.70;99.90;;;;;;5056812;28;20044;-74
2023/08/28 07:29:47;;;;;;;5.47;4.65;;;15.80;99.90;;;;;;5058472;28;20031;-75
2023/08/28 07:32:12;;;;;;;5.18;4.03;;;15.90;99.90;;;;;;5059297;28;20078;-74
2023/08/28 07:34:38;;;;;;;4.13;3.70;;;16.00;99.90;;;;;;5059964;28;20032;-74
2023/08/28 07:37:04;;;;;;;7.80;4.10;;;16.10;99.90;;;;;;5057935;28;20390;-74
2023/08/28 07:39:30;;;;;;;5.05;4.28;;;16.10;99.90;;;;;;5060780;28;20053;-74
2023/08/28 07:41:59;;;;;;;5.65;4.32;;;16.10;99.90;;;;;;5064842;28;20539;-74
2023/08/28 07:44:25;;;;;;;6.72;4.38;;;16.10;99.90;;;;;;5062487;28;20033;-74
2023/08/28 07:46:51;;;;;;;8.80;4.07;;;16.20;99.90;;;;;;5058261;28;20036;-75
2023/08/28 07:49:17;;;;;;;4.13;3.58;;;16.20;99.90;;;;;;5062744;28;20060;-74
2023/08/28 07:51:42;;;;;;;16.73;4.95;;;16.30;99.90;;;;;;5056597;28;20115;-74
2023/08/28 07:54:08;;;;;;;6.10;4.25;;;16.40;99.90;;;;;;5064891;28;20020;-74
2023/08/28 07:56:33;;;;;;;5.53;3.20;;;16.40;99.90;;;;;;5053568;28;20087;-73
2023/08/28 07:58:59;;;;;;;4.40;3.72;;;16.60;99.90;;;;;;5058988;28;20376;-73
2023/08/28 08:01:24;;;;;;;6.25;4.18;;;16.70;99.90;;;;;;5059005;28;20025;-73
2023/08/28 08:03:50;;;;;;;5.72;3.25;;;16.60;99.90;;;;;;5057653;28;20026;-73
2023/08/28 08:06:16;;;;;;;6.80;3.92;;;16.70;99.90;;;;;;5067938;28;20552;-73
2023/08/28 08:08:45;;;;;;;5.18;3.20;;;16.60;99.90;;;;;;5067510;28;20024;-73
2023/08/28 08:11:11;;;;;;;7.35;3.17;;;16.60;99.90;;;;;;5073425;28;20025;-73
2023/08/28 08:13:36;;;;;;;4.97;2.85;;;16.60;99.90;;;;;;5063416;28;20044;-74
2023/08/28 08:16:02;;;;;;;16.65;4.05;;;16.70;99.90;;;;;;5052898;28;20070;-74
2023/08/28 08:18:27;;;;;;;7.05;3.15;;;16.80;99.90;;;;;;5057799;28;20499;-74
2023/08/28 08:20:53;;;;;;;4.25;3.78;;;17.10;99.90;;;;;;5052242;28;20487;-73
2023/08/28 08:23:19;;;;;;;4.07;2.60;;;17.20;99.90;;;;;;5060390;28;20027;-73
2023/08/28 08:25:44;;;;;;;4.85;3.53;;;17.20;99.90;;;;;;5067234;28;20027;-74
2023/08/28 08:28:10;;;;;;;4.25;2.42;;;17.30;99.90;;;;;;5067854;28;20025;-75
2023/08/28 08:30:35;;;;;;;2.53;2.33;;;17.40;99.90;;;;;;5058213;28;20495;-75
2023/08/28 08:33:01;;;;;;;3.05;2.35;;;17.50;99.90;;;;;;5053036;28;20487;-75
2023/08/28 08:35:28;;;;;;;5.30;3.58;;;17.70;99.90;;;;;;5056153;28;20521;-75
2023/08/28 08:37:53;;;;;;;5.45;2.45;;;17.80;99.90;;;;;;5059949;28;20036;-75
2023/08/28 08:40:24;;;;;;;5.95;2.75;;;17.70;99.90;;;;;;5053518;28;20471;-75
2023/08/28 08:42:49;;;;;;;4.97;2.33;;;17.80;99.90;;;;;;5051313;28;20025;-75
2023/08/28 08:45:15;;;;;;;4.57;2.30;;;17.90;99.90;;;;;;5045886;28;20025;-75
2023/08/28 08:47:49;;;;;;;3.67;1.88;;;17.90;99.90;;;;;;5051769;28;20503;-75
2023/08/28 08:50:18;;;;;;;4.18;2.72;;;18.00;99.90;;;;;;5050698;28;20177;-74
2023/08/28 08:52:47;;;;;;;5.15;2.50;;;18.10;99.90;;;;;;5048843;28;20052;-75
2023/08/28 08:55:24;;;;;;;2.00;1.77;;;18.20;99.90;;;;;;5052982;28;20025;-73
2023/08/28 08:57:53;;;;;;;5.15;2.28;;;18.40;99.80;;;;;;5053376;28;20029;-75
2023/08/28 09:00:19;;;;;;;7.53;2.33;;;18.50;99.70;;;;;;5055473;28;20075;-75
2023/08/28 09:02:45;;;;;;;2.78;1.65;;;18.60;99.40;;;;;;5066863;28;20025;-75
2023/08/28 09:05:14;;;;;;;4.25;2.25;;;18.60;99.00;;;;;;5063221;28;20058;-75
2023/08/28 09:07:39;;;;;;;2.35;1.80;;;18.60;99.10;;;;;;5054745;28;20036;-75
2023/08/28 09:10:06;;;;;;;2.97;1.58;;;18.60;99.40;;;;;;5065372;28;20016;-75
2023/08/28 09:12:31;;;;;;;2.65;1.58;;;18.70;98.90;;;;;;5056809;28;20033;-75
2023/08/28 09:14:57;;;;;;;3.30;1.80;;;18.60;98.60;;;;;;5060792;28;20036;-75
2023/08/28 09:17:25;;;;;;;12.70;1.75;;;18.50;98.60;;;;;;5061171;28;20029;-75
2023/08/28 09:19:53;;;;;;;2.00;1.55;;;18.50;98.40;;;;;;5066292;28;20395;-74
2023/08/28 09:22:21;;;;;;;3.08;1.58;;;18.50;98.50;;;;;;5066572;28;20035;-75
2023/08/28 09:24:51;;;;;;;2.70;1.38;;;18.50;98.20;;;;;;5060028;28;20029;-74
2023/08/28 09:27:18;;;;;;;4.72;1.67;;;18.50;98.20;;;;;;5063593;28;20118;-75
2023/08/28 09:29:43;;;;;;;9.90;1.98;;;18.50;98.40;;;;;;5060235;28;20028;-76
2023/08/28 09:32:10;;;;;;;2.78;1.75;;;18.60;98.40;;;;;;5064093;28;20399;-75
2023/08/28 09:34:40;;;;;;;3.97;1.90;;;18.70;98.40;;;;;;5059843;28;20411;-75
2023/08/28 09:37:10;;;;;;;3.63;1.73;;;18.70;98.10;;;;;;5068541;28;20029;-76
2023/08/28 09:39:53;;;;;;;3.63;1.90;;;18.70;98.20;;;;;;5059739;28;20033;-75
2023/08/28 09:42:24;;;;;;;4.15;1.55;;;18.70;98.30;;;;;;5055510;28;20028;-76
2023/08/28 09:44:49;;;;;;;6.00;2.47;;;18.90;98.20;;;;;;5051759;28;20194;-75
2023/08/28 09:47:22;;;;;;;3.33;1.58;;;19.00;98.00;;;;;;5056715;28;20107;-75
2023/08/28 09:49:49;;;;;;;1.80;1.20;;;19.10;97.10;;;;;;5061517;28;20029;-76
2023/08/28 09:52:24;;;;;;;3.50;1.40;;;19.10;97.50;;;;;;5063058;28;20606;-75
2023/08/28 09:55:07;;;;;;;4.15;1.90;;;19.10;97.50;;;;;;5060645;28;20036;-75
2023/08/28 09:57:32;;;;;;;4.07;2.00;;;19.20;97.60;;;;;;5066395;28;20026;-75
2023/08/28 09:59:59;;;;;;;3.65;2.00;;;19.20;97.30;;;;;;5060983;28;20025;-75
2023/08/28 10:02:27;;;;;;;4.32;2.08;;;19.30;97.40;;;;;;5052144;28;20024;-75
2023/08/28 10:04:53;;;;;;;3.97;1.85;;;19.40;97.30;;;;;;5050541;28;20047;-74
2023/08/28 10:07:23;;;;;;;2.90;1.73;;;19.50;96.90;;;;;;5060303;28;20447;-75
2023/08/28 10:09:53;;;;;;;1.88;1.50;;;19.50;96.70;;;;;;5045268;28;20038;-74
2023/08/28 10:12:21;;;;;;;4.65;1.75;;;19.50;96.90;;;;;;5056727;28;20087;-74
2023/08/28 10:14:49;;;;;;;2.00;1.73;;;19.70;96.90;;;;;;5050048;28;20037;-73
2023/08/28 10:17:17;;;;;;;3.72;2.03;;;19.80;96.70;;;;;;5059655;28;20025;-75
2023/08/28 10:19:51;;;;;;;4.40;1.70;;;19.90;96.40;;;;;;5071115;28;20020;-75
2023/08/28 10:22:16;;;;;;;4.00;1.98;;;20.00;96.00;;;;;;5068150;28;20072;-75
2023/08/28 10:24:42;;;;;;;4.10;1.40;;;20.00;96.20;;;;;;5051141;28;20048;-74
2023/08/28 10:27:10;;;;;;;2.22;1.50;;;20.00;95.70;;;;;;5053514;28;20025;-74
2023/08/28 10:29:37;;;;;;;4.60;2.00;;;20.00;95.90;;;;;;5062088;28;20020;-75
2023/08/28 10:32:08;;;;;;;2.45;1.75;;;20.00;95.80;;;;;;5064227;28;20029;-74
2023/08/28 10:34:37;;;;;;;3.08;1.80;;;20.10;95.50;;;;;;5058951;28;20021;-75
2023/08/28 10:37:04;;;;;;;1.52;1.33;;;20.10;95.40;;;;;;5059064;28;20025;-75
2023/08/28 10:39:29;;;;;;;2.80;1.50;;;20.20;95.30;;;;;;5064245;28;20025;-75
2023/08/28 10:41:56;;;;;;;6.85;1.42;;;20.20;95.50;;;;;;5052927;28;20021;-75
2023/08/28 10:44:22;;;;;;;3.22;1.50;;;20.30;95.50;;;;;;5050802;28;20120;-75
2023/08/28 10:46:51;;;;;;;2.85;1.20;;;20.40;95.40;;;;;;5054271;28;20036;-75
2023/08/28 10:49:18;;;;;;;3.85;1.13;;;20.50;94.80;;;;;;5062449;28;20078;-75
2023/08/28 10:51:44;;;;;;;2.95;1.23;;;20.50;95.20;;;;;;5058995;28;20141;-75
2023/08/28 10:54:10;;;;;;;1.00;0.77;;;20.70;94.90;;;;;;5046278;28;20387;-70
2023/08/28 10:56:38;;;;;;;1.95;1.00;;;20.80;94.60;;;;;;5057765;28;20032;-75
2023/08/28 10:59:23;;;;;;;3.33;1.30;;;21.00;94.50;;;;;;5063940;28;20074;-75
2023/08/28 11:01:57;;;;;;;2.22;1.00;;;21.10;94.30;;;;;;5042270;28;20111;-73
2023/08/28 11:04:33;;;;;;;2.05;1.10;;;21.20;94.10;;;;;;5048691;28;20445;-74
2023/08/28 11:06:58;;;;;;;;;;;21.30;93.80;;;;;;5056947;28;20029;-74
2023/08/28 11:09:29;;;;;;;2.57;1.37;;;21.20;92.80;;;;;;5047818;28;19982;-74
2023/08/28 11:11:58;;;;;;;2.03;0.73;;;21.10;92.90;;;;;;5057485;28;20024;-74
2023/08/28 11:14:25;;;;;;;1.90;0.70;;;21.20;93.20;;;;;;5053589;28;20013;-74
2023/08/28 11:17:06;;;;;;;1.30;1.20;;;21.30;93.20;;;;;;5057076;28;20086;-73
2023/08/28 11:19:32;;;;;;;1.55;0.70;;;21.50;92.70;;;;;;5054217;28;20495;-75
2023/08/28 11:21:58;;;;;;;1.52;0.85;;;21.50;91.50;;;;;;5064585;28;20048;-75
2023/08/28 11:24:25;;;;;;;2.92;0.90;;;21.30;91.80;;;;;;5056132;28;20032;-75
2023/08/28 11:26:50;;;;;;;5.18;1.30;;;21.20;92.10;;;;;;5053147;28;20036;-77
2023/08/28 11:29:27;;;;;;;1.90;0.85;;;21.20;92.40;;;;;;5058706;28;20025;-76
2023/08/28 11:31:53;;;;;;;3.22;0.65;;;21.10;92.20;;;;;;5060573;28;20037;-75
2023/08/28 11:34:18;;;;;;;1.85;0.60;;;21.10;92.40;;;;;;5059861;28;20398;-76
2023/08/28 11:36:45;;;;;;;1.17;0.80;;;21.00;92.10;;;;;;5065993;28;20539;-76
2023/08/28 11:39:22;;;;;;;3.10;0.73;;;21.00;92.10;;;;;;5068518;28;20023;-77
2023/08/28 11:41:49;;;;;;;1.98;0.80;;;21.00;92.00;;;;;;5057095;28;20020;-76
2023/08/28 11:44:15;;;;;;;3.95;0.68;;;21.00;92.40;;;;;;5054011;28;20048;-76
2023/08/28 11:46:41;;;;;;;6.18;0.95;;;21.10;92.50;;;;;;5059173;28;20064;-76
2023/08/28 11:49:07;;;;;;;2.53;1.33;;;21.20;92.40;;;;;;5059835;28;20029;-75
2023/08/28 11:51:32;;;;;;;2.88;0.65;;;21.40;92.50;;;;;;5062139;28;20040;-75
2023/08/28 11:53:59;;;;;;;2.03;0.82;;;21.40;92.20;;;;;;5054413;28;20031;-75
2023/08/28 11:56:24;;;;;;;3.55;0.70;;;21.40;91.80;;;;;;5057129;28;20032;-75
2023/08/28 11:58:52;;;;;;;3.97;0.70;;;21.40;91.90;;;;;;5055285;28;20071;-76
2023/08/28 12:01:18;;;;;;;3.35;0.50;;;21.40;92.10;;;;;;5069260;28;20063;-76
2023/08/28 12:03:44;;;;;;;2.28;0.80;;;21.50;91.90;;;;;;5056766;28;20020;-75
2023/08/28 12:06:12;;;;;;;1.65;0.75;;;21.60;92.00;;;;;;5061812;28;20506;-75
2023/08/28 12:08:41;;;;;;;3.22;0.77;;;21.60;92.00;;;;;;5060604;28;20032;-76
2023/08/28 12:11:08;;;;;;;15.80;2.83;;;21.70;92.10;;;;;;5052229;28;20072;-75
2023/08/28 12:13:35;;;;;;;9.43;1.60;;;21.90;91.80;;;;;;5055065;28;20029;-73
2023/08/28 12:16:20;;;;;;;8.57;1.17;;;22.00;91.60;;;;;;5061257;28;20037;-74
2023/08/28 12:18:53;;;;;;;1.95;1.10;;;21.90;91.00;;;;;;5059428;28;20025;-74
2023/08/28 12:21:37;;;;;;;2.35;0.68;;;21.70;90.90;;;;;;5059678;28;20115;-74
2023/08/28 12:24:06;;;;;;;2.30;0.70;;;21.60;90.40;;;;;;5052263;28;20490;-73
2023/08/28 12:26:33;;;;;;;3.20;0.60;;;21.40;90.60;;;;;;5058762;28;20038;-74
2023/08/28 12:28:59;;;;;;;2.40;0.73;;;21.20;90.80;;;;;;5057265;28;20067;-74
2023/08/28 12:31:31;;;;;;;1.15;0.57;;;21.20;90.80;;;;;;5065836;28;20074;-74
2023/08/28 12:34:04;;;;;;;1.45;0.50;;;21.20;90.50;;;;;;5064561;28;20496;-75
2023/08/28 12:36:47;;;;;;;1.05;0.60;;;21.10;90.90;;;;;;5070501;28;20367;-75
2023/08/28 12:39:17;;;;;;;3.45;1.15;;;21.20;90.80;;;;;;5066346;28;20648;-74
2023/08/28 12:41:54;;;;;;;7.85;1.20;;;21.20;90.50;;;;;;5067113;28;20054;-74
2023/08/28 12:44:20;;;;;;;8.93;1.05;;;21.40;90.80;;;;;;5065647;28;20487;-74
2023/08/28 12:46:46;;;;;;;5.32;0.50;;;21.60;90.80;;;;;;5056333;28;20529;-76
2023/08/28 12:49:12;;;;;;;2.15;0.30;;;21.80;90.20;;;;;;5057418;28;20033;-75
2023/08/28 12:51:39;;;;;;;4.28;0.65;;;21.80;88.00;;;;;;5059457;28;20032;-75